createdAt,value
2022-09-03T00:00:09.091Z,101099.56
2022-09-03T00:02:41.022Z,101091.19
2022-09-03T00:05:13.605Z,101095.91
2022-09-03T00:07:48.104Z,101094.22
2022-09-03T00:10:23.163Z,101091.22
2022-09-03T00:12:52.381Z,101091.22
2022-09-03T00:15:22.073Z,101082.88
2022-09-03T00:17:53.241Z,101088.88
2022-09-03T00:20:24.136Z,101089.06
2022-09-03T00:22:54.793Z,101091.91
2022-09-03T00:25:26.645Z,101100.97
2022-09-03T00:27:56.989Z,101089.59
2022-09-03T00:30:27.591Z,101094.25
2022-09-03T00:32:58.801Z,101099.63
2022-09-03T00:35:29.017Z,101097.13
2022-09-03T00:37:57.267Z,101089.25
2022-09-03T00:40:38.504Z,101093.78
2022-09-03T00:43:14.338Z,101094.09
2022-09-03T00:45:45.461Z,101096.13
2022-09-03T00:48:20.564Z,101095.66
2022-09-03T00:51:06.890Z,101095.66
2022-09-03T00:53:38.039Z,101098.66
2022-09-03T00:56:13.980Z,101095.13
2022-09-03T00:58:51.292Z,101097.34
2022-09-03T01:01:24.323Z,101100.19
2022-09-03T01:03:58.704Z,101101.34
2022-09-03T01:06:31.233Z,101098.34
2022-09-03T01:09:10.309Z,101094.50
2022-09-03T01:11:49.179Z,101092.00
2022-09-03T01:14:24.562Z,101096.50
2022-09-03T01:16:56.299Z,101089.81
2022-09-03T01:19:41.831Z,101088.97
2022-09-03T01:22:25.342Z,101096.34
2022-09-03T01:25:14.047Z,101097.34
2022-09-03T01:27:48.102Z,101092.16
2022-09-03T01:30:19.349Z,101100.34
2022-09-03T01:32:53.043Z,101101.03
2022-09-03T01:35:28.243Z,101094.69
2022-09-03T01:38:14.268Z,101094.16
2022-09-03T01:40:44.131Z,101093.31
2022-09-03T01:43:24.115Z,101094.00
2022-09-03T01:45:59.668Z,101090.31
2022-09-03T01:48:35.344Z,101092.00
2022-09-03T01:51:11.046Z,101093.84
2022-09-03T01:53:58.035Z,101090.66
2022-09-03T01:56:34.378Z,101086.50
2022-09-03T01:59:03.881Z,101099.00
2022-09-03T02:01:35.114Z,101094.97
2022-09-03T02:04:03.263Z,101092.00
2022-09-03T02:06:32.937Z,101095.34
2022-09-03T02:09:00.549Z,101098.19
2022-09-03T02:11:28.356Z,101095.66
2022-09-03T02:13:57.696Z,101100.03
2022-09-03T02:16:28.748Z,101093.97
2022-09-03T02:19:01.174Z,101101.00
2022-09-03T02:21:34.569Z,101109.19
2022-09-03T02:24:02.417Z,101100.50
2022-09-03T02:26:30.065Z,101104.19
2022-09-03T02:28:58.364Z,101093.50
2022-09-03T02:31:26.547Z,101096.34
2022-09-03T02:33:54.364Z,101103.66
2022-09-03T02:36:28.582Z,101106.34
2022-09-03T02:38:56.287Z,101096.00
2022-09-03T02:41:24.114Z,101096.34
2022-09-03T02:43:54.774Z,101101.00
2022-09-03T02:46:27.087Z,101097.00
2022-09-03T02:48:55.114Z,101102.34
2022-09-03T02:51:24.153Z,101094.31
2022-09-03T02:53:52.036Z,101090.47
2022-09-03T02:56:19.886Z,101087.97
2022-09-03T02:58:47.511Z,101092.31
2022-09-03T03:01:23.882Z,101085.47
2022-09-03T03:03:52.084Z,101091.94
2022-09-03T03:06:21.813Z,101080.94
2022-09-03T03:08:51.593Z,101092.28
2022-09-03T03:11:20.127Z,101078.25
2022-09-03T03:13:48.017Z,101079.41
2022-09-03T03:16:17.045Z,101076.06
2022-09-03T03:18:46.201Z,101070.22
2022-09-03T03:21:15.302Z,101078.25
2022-09-03T03:23:43.145Z,101077.72
2022-09-03T03:26:14.145Z,101068.88
2022-09-03T03:28:42.306Z,101074.56
2022-09-03T03:31:12.093Z,101071.19
2022-09-03T03:33:40.450Z,101069.53
2022-09-03T03:36:10.334Z,101071.53
2022-09-03T03:38:38.675Z,101067.38
2022-09-03T03:41:10.857Z,101065.53
2022-09-03T03:43:40.080Z,101065.16
2022-09-03T03:46:08.140Z,101076.88
2022-09-03T03:48:36.291Z,101073.34
2022-09-03T03:51:06.731Z,101075.38
2022-09-03T03:53:35.285Z,101072.00
2022-09-03T03:56:04.633Z,101055.78
2022-09-03T03:58:33.949Z,101064.16
2022-09-03T04:01:07.469Z,101073.16
2022-09-03T04:03:35.236Z,101061.13
2022-09-03T04:06:04.677Z,101067.47
2022-09-03T04:08:35.628Z,101071.81
2022-09-03T04:11:04.188Z,101068.47
2022-09-03T04:13:32.614Z,101065.97
2022-09-03T04:16:04.668Z,101063.44
2022-09-03T04:18:35.223Z,101068.06
2022-09-03T04:21:04.648Z,101062.06
2022-09-03T04:23:32.923Z,101064.75
2022-09-03T04:26:00.895Z,101064.06
2022-09-03T04:28:29.311Z,101060.75
2022-09-03T04:31:02.006Z,101059.72
2022-09-03T04:33:29.780Z,101061.03
2022-09-03T04:36:07.796Z,101065.38
2022-09-03T04:38:35.919Z,101065.06
2022-09-03T04:41:04.094Z,101065.22
2022-09-03T04:43:31.893Z,101057.22
2022-09-03T04:46:00.424Z,101064.34
2022-09-03T04:48:28.452Z,101057.50
2022-09-03T04:50:56.511Z,101064.69
2022-09-03T04:53:25.619Z,101065.69
2022-09-03T04:55:53.261Z,101055.34
2022-09-03T04:58:20.976Z,101059.97
2022-09-03T05:00:49.337Z,101058.31
2022-09-03T05:03:17.761Z,101054.81
2022-09-03T05:05:53.327Z,101061.81
2022-09-03T05:08:21.727Z,101056.28
2022-09-03T05:10:50.820Z,101062.47
2022-09-03T05:13:23.156Z,101057.28
2022-09-03T05:15:50.837Z,101052.09
2022-09-03T05:18:18.815Z,101053.94
2022-09-03T05:20:46.819Z,101059.44
2022-09-03T05:23:14.460Z,101060.28
2022-09-03T05:25:42.066Z,101054.94
2022-09-03T05:28:11.121Z,101044.25
2022-09-03T05:30:38.829Z,101051.44
2022-09-03T05:33:06.518Z,101053.56
2022-09-03T05:35:35.605Z,101063.78
2022-09-03T05:38:03.631Z,101057.63
2022-09-03T05:40:31.577Z,101057.63
2022-09-03T05:42:59.824Z,101055.63
2022-09-03T05:45:29.817Z,101068.81
2022-09-03T05:48:01.092Z,101063.63
2022-09-03T05:50:28.713Z,101063.63
2022-09-03T05:52:56.399Z,101058.28
2022-09-03T05:55:24.034Z,101063.47
2022-09-03T05:57:52.813Z,101063.28
2022-09-03T06:00:20.492Z,101061.63
2022-09-03T06:02:52.976Z,101060.31
2022-09-03T06:05:20.979Z,101060.63
2022-09-03T06:07:49.594Z,101063.28
2022-09-03T06:10:21.256Z,101065.97
2022-09-03T06:12:52.665Z,101061.50
2022-09-03T06:15:20.426Z,101058.63
2022-09-03T06:17:48.110Z,101063.00
2022-09-03T06:20:17.328Z,101064.66
2022-09-03T06:22:52.131Z,101073.34
2022-09-03T06:25:20.330Z,101071.66
2022-09-03T06:27:49.436Z,101071.38
2022-09-03T06:30:17.925Z,101074.72
2022-09-03T06:32:45.845Z,101072.69
2022-09-03T06:35:13.757Z,101076.03
2022-09-03T06:37:43.031Z,101068.72
2022-09-03T06:40:14.155Z,101071.22
2022-09-03T06:42:43.819Z,101070.22
2022-09-03T06:45:13.713Z,101068.38
2022-09-03T06:47:41.333Z,101071.72
2022-09-03T06:50:10.157Z,101073.09
2022-09-03T06:52:37.804Z,101070.41
2022-09-03T06:55:08.100Z,101071.91
2022-09-03T06:57:35.872Z,101065.56
2022-09-03T07:00:04.545Z,101071.44
2022-09-03T07:02:32.337Z,101075.47
2022-09-03T07:05:00.586Z,101070.84
2022-09-03T07:07:28.281Z,101080.00
2022-09-03T07:09:55.928Z,101070.84
2022-09-03T07:12:24.909Z,101070.34
2022-09-03T07:14:52.559Z,101063.00
2022-09-03T07:17:21.368Z,101070.69
2022-09-03T07:19:49.229Z,101067.84
2022-09-03T07:22:16.862Z,101078.06
2022-09-03T07:24:46.878Z,101063.53
2022-09-03T07:27:15.256Z,101068.22
2022-09-03T07:29:44.693Z,101064.19
2022-09-03T07:32:12.476Z,101063.06
2022-09-03T07:34:40.194Z,101064.06
2022-09-03T07:37:08.118Z,101063.22
2022-09-03T07:39:35.989Z,101061.88
2022-09-03T07:42:03.811Z,101065.22
2022-09-03T07:44:31.486Z,101060.72
2022-09-03T07:47:00.826Z,101064.38
2022-09-03T07:49:28.554Z,101059.53
2022-09-03T07:51:56.296Z,101058.91
2022-09-03T07:54:26.118Z,101066.22
2022-09-03T07:56:55.136Z,101070.06
2022-09-03T07:59:24.433Z,101066.25
2022-09-03T08:01:52.122Z,101062.38
2022-09-03T08:04:22.022Z,101060.50
2022-09-03T08:06:49.726Z,101070.19
2022-09-03T08:09:17.514Z,101062.94
2022-09-03T08:11:45.219Z,101059.41
2022-09-03T08:14:14.827Z,101056.72
2022-09-03T08:16:44.477Z,101055.31
2022-09-03T08:19:13.389Z,101060.69
2022-09-03T08:21:42.894Z,101055.47
2022-09-03T08:24:11.500Z,101064.28
2022-09-03T08:26:44.104Z,101057.59
2022-09-03T08:29:14.152Z,101064.38
2022-09-03T08:31:42.901Z,101060.81
2022-09-03T08:34:11.845Z,101058.25
2022-09-03T08:36:41.548Z,101065.41
2022-09-03T08:39:12.165Z,101069.88
2022-09-03T08:41:57.495Z,101067.34
2022-09-03T08:44:28.090Z,101068.44
2022-09-03T08:46:59.525Z,101064.72
2022-09-03T08:49:30.159Z,101062.81
2022-09-03T08:51:58.988Z,101069.78
2022-09-03T08:54:31.862Z,101062.69
2022-09-03T08:57:02.441Z,101055.91
2022-09-03T08:59:33.049Z,101056.50
2022-09-03T09:02:09.928Z,101053.75
2022-09-03T09:04:51.914Z,101057.56
2022-09-03T09:07:23.686Z,101065.88
2022-09-03T09:09:58.030Z,101055.53
2022-09-03T09:12:41.295Z,101048.75
2022-09-03T09:15:15.509Z,101055.75
2022-09-03T09:17:52.523Z,101049.06
2022-09-03T09:20:26.344Z,101057.47
2022-09-03T09:22:56.795Z,101055.97
2022-09-03T09:25:27.018Z,101052.88
2022-09-03T09:27:58.213Z,101057.66
2022-09-03T09:30:26.051Z,101045.03
2022-09-03T09:32:54.010Z,101043.28
2022-09-03T09:35:21.882Z,101042.53
2022-09-03T09:37:51.308Z,101040.91
2022-09-03T09:40:34.054Z,101037.72
2022-09-03T09:43:10.844Z,101039.44
2022-09-03T09:47:11.870Z,101033.28
2022-09-03T09:49:45.152Z,101025.91
2022-09-03T09:52:14.489Z,101034.03
2022-09-03T09:54:43.639Z,101022.66
2022-09-03T09:57:18.196Z,101022.53
2022-09-03T09:59:46.991Z,101026.97
2022-09-03T10:02:22.346Z,101009.59
2022-09-03T10:04:50.625Z,101024.34
2022-09-03T10:07:24.165Z,101020.47
2022-09-03T10:10:02.677Z,101020.94
2022-09-03T10:12:34.964Z,101019.69
2022-09-03T10:15:12.917Z,101019.94
2022-09-03T10:17:50.381Z,101021.44
2022-09-03T10:20:31.169Z,101014.38
2022-09-03T10:23:02.506Z,101008.56
2022-09-03T10:25:39.190Z,101013.53
2022-09-03T10:28:07.623Z,101014.28
2022-09-03T10:30:56.321Z,101011.91
2022-09-03T10:33:27.560Z,101017.34
2022-09-03T10:36:02.948Z,101021.53
2022-09-03T10:38:34.194Z,101015.09
2022-09-03T10:41:10.722Z,101014.28
2022-09-03T10:43:47.724Z,101010.72
2022-09-03T10:46:23.872Z,101011.13
2022-09-03T10:49:19.755Z,101013.44
2022-09-03T10:51:52.754Z,101012.41
2022-09-03T10:54:35.681Z,101007.41
2022-09-03T10:57:10.163Z,101014.25
2022-09-03T11:00:09.939Z,101000.38
2022-09-03T11:02:52.861Z,100995.19
2022-09-03T11:05:23.830Z,101005.78
2022-09-03T11:07:55.425Z,100998.53
2022-09-03T11:10:31.001Z,100998.56
2022-09-03T11:13:04.880Z,101005.41
2022-09-03T11:15:35.925Z,101001.88
2022-09-03T11:18:07.790Z,101006.44
2022-09-03T11:20:36.904Z,100989.00
2022-09-03T11:23:05.933Z,100988.56
2022-09-03T11:25:36.751Z,100989.00
2022-09-03T11:28:11.671Z,100982.94
2022-09-03T11:30:51.297Z,100990.22
2022-09-03T11:33:21.066Z,100990.44
2022-09-03T11:35:57.653Z,100991.88
2022-09-03T11:38:28.972Z,100985.84
2022-09-03T11:41:01.445Z,100990.59
2022-09-03T11:43:30.590Z,100972.50
2022-09-03T11:46:06.938Z,100979.38
2022-09-03T11:48:38.393Z,100978.16
2022-09-03T11:51:19.084Z,100972.75
2022-09-03T11:53:55.649Z,100969.59
2022-09-03T11:56:23.587Z,100976.88
2022-09-03T11:59:02.750Z,100959.88
2022-09-03T12:01:31.313Z,100978.78
2022-09-03T12:04:03.517Z,100973.34
2022-09-03T12:06:49.746Z,100973.78
2022-09-03T12:09:32.201Z,100963.97
2022-09-03T12:12:09.208Z,100976.38
2022-09-03T12:14:41.941Z,100973.22
2022-09-03T12:17:15.788Z,100967.97
2022-09-03T12:19:48.855Z,100963.75
2022-09-03T12:22:19.166Z,100962.09
2022-09-03T12:24:48.273Z,100966.00
2022-09-03T12:27:24.669Z,100969.13
2022-09-03T12:29:57.987Z,100964.06
2022-09-03T12:32:26.378Z,100964.47
2022-09-03T12:34:54.708Z,100964.06
2022-09-03T12:40:22.076Z,100956.09
2022-09-03T12:42:50.458Z,100961.81
2022-09-03T12:45:20.777Z,100953.00
2022-09-03T12:47:48.758Z,100952.09
2022-09-03T12:50:20.083Z,100956.03
2022-09-03T12:52:50.574Z,100948.31
2022-09-03T12:55:28.191Z,100942.03
2022-09-03T12:58:02.207Z,100941.25
2022-09-03T13:00:33.031Z,100949.50
2022-09-03T13:03:03.485Z,100946.94
2022-09-03T13:05:34.501Z,100939.00
2022-09-03T13:08:05.389Z,100940.34
2022-09-03T13:10:36.855Z,100951.03
2022-09-03T13:13:05.459Z,100947.38
2022-09-03T13:15:33.190Z,100945.00
2022-09-03T13:18:09.572Z,100944.56
2022-09-03T13:20:45.217Z,100947.88
2022-09-03T13:23:21.974Z,100943.38
2022-09-03T13:25:57.014Z,100938.97
2022-09-03T13:28:40.026Z,100942.28
2022-09-03T13:31:19.934Z,100942.22
2022-09-03T13:33:50.964Z,100943.81
2022-09-03T13:36:21.214Z,100939.59
2022-09-03T13:38:55.614Z,100933.31
2022-09-03T13:41:34.676Z,100924.88
2022-09-03T13:44:08.421Z,100936.44
2022-09-03T13:46:42.568Z,100937.78
2022-09-03T13:49:36.242Z,100930.28
2022-09-03T13:52:07.747Z,100930.94
2022-09-03T13:54:49.235Z,100928.69
2022-09-03T13:57:20.960Z,100929.31
2022-09-03T13:59:49.918Z,100924.38
2022-09-03T14:02:19.815Z,100929.03
2022-09-03T14:04:56.551Z,100930.41
2022-09-03T14:07:28.525Z,100923.94
2022-09-03T14:10:06.094Z,100929.50
2022-09-03T14:12:44.217Z,100922.59
2022-09-03T14:15:18.890Z,100919.66
2022-09-03T14:17:50.012Z,100930.13
2022-09-03T14:20:22.825Z,100931.00
2022-09-03T14:22:53.989Z,100933.03
2022-09-03T14:25:23.898Z,100933.31
2022-09-03T14:27:51.952Z,100930.94
2022-09-03T14:30:26.734Z,100924.16
2022-09-03T14:32:58.466Z,100934.56
2022-09-03T14:35:49.849Z,100939.38
2022-09-03T14:38:39.419Z,100936.03
2022-09-03T14:41:31.584Z,100929.41
2022-09-03T14:44:24.052Z,100932.31
2022-09-03T14:47:02.388Z,100930.22
2022-09-03T14:49:59.455Z,100928.94
2022-09-03T14:52:49.997Z,100924.47
2022-09-03T14:55:30.639Z,100928.78
2022-09-03T14:58:15.370Z,100927.06
2022-09-03T15:00:51.124Z,100919.09
2022-09-03T15:03:40.949Z,100921.91
2022-09-03T15:06:14.791Z,100929.03
2022-09-03T15:08:55.861Z,100924.00
2022-09-03T15:11:25.765Z,100925.66
2022-09-03T15:14:03.209Z,100934.78
2022-09-03T15:16:41.152Z,100931.44
2022-09-03T15:19:14.929Z,100932.06
2022-09-03T15:21:55.397Z,100926.78
2022-09-03T15:24:28.799Z,100935.59
2022-09-03T15:27:10.132Z,100929.03
2022-09-03T15:29:51.424Z,100934.59
2022-09-03T15:32:28.562Z,100935.25
2022-09-03T15:35:08.725Z,100936.31
2022-09-03T15:37:43.637Z,100938.00
2022-09-03T15:40:25.184Z,100941.00
2022-09-03T15:42:58.033Z,100940.25
2022-09-03T15:45:29.825Z,100938.75
2022-09-03T15:47:57.802Z,100937.16
2022-09-03T15:50:33.987Z,100932.34
2022-09-03T15:53:05.019Z,100936.69
2022-09-03T15:55:37.050Z,100935.03
2022-09-03T15:58:11.379Z,100940.94
2022-09-03T16:00:52.345Z,100944.72
2022-09-03T16:03:24.496Z,100936.84
2022-09-03T16:05:58.096Z,100939.97
2022-09-03T16:08:29.509Z,100941.25
2022-09-03T16:11:02.888Z,100936.44
2022-09-03T16:13:42.253Z,100938.94
2022-09-03T16:16:12.906Z,100938.53
2022-09-03T16:18:45.621Z,100946.03
2022-09-03T16:21:25.803Z,100950.63
2022-09-03T16:23:54.231Z,100950.28
2022-09-03T16:26:28.107Z,100941.09
2022-09-03T16:28:58.689Z,100944.81
2022-09-03T16:31:37.842Z,100940.69
2022-09-03T16:34:08.675Z,100947.13
2022-09-03T16:36:41.540Z,100943.81
2022-09-03T16:39:18.004Z,100941.94
2022-09-03T16:41:50.447Z,100939.66
2022-09-03T16:44:24.385Z,100949.63
2022-09-03T16:47:01.485Z,100945.28
2022-09-03T16:49:40.305Z,100950.06
2022-09-03T16:52:14.887Z,100951.53
2022-09-03T16:54:56.018Z,100945.28
2022-09-03T16:57:34.190Z,100949.84
2022-09-03T17:00:07.978Z,100951.13
2022-09-03T17:02:58.495Z,100955.28
2022-09-03T17:05:40.131Z,100961.09
2022-09-03T17:08:17.000Z,100960.28
2022-09-03T17:10:49.190Z,100960.50
2022-09-03T17:13:44.252Z,100963.22
2022-09-03T17:16:24.493Z,100966.13
2022-09-03T17:18:59.626Z,100968.22
2022-09-03T17:21:38.693Z,100969.81
2022-09-03T17:24:37.388Z,100968.00
2022-09-03T17:27:24.924Z,100963.81
2022-09-03T17:30:07.588Z,100953.69
2022-09-03T17:32:48.700Z,100968.22
2022-09-03T17:35:19.751Z,100978.59
2022-09-03T17:37:58.167Z,100972.81
2022-09-03T17:40:39.112Z,100968.84
2022-09-03T17:43:13.153Z,100974.88
2022-09-03T17:45:49.316Z,100970.72
2022-09-03T17:48:23.788Z,100977.97
2022-09-03T17:50:57.054Z,100980.66
2022-09-03T17:53:26.999Z,100979.81
2022-09-03T17:55:58.200Z,100987.28
2022-09-03T17:58:31.271Z,100985.00
2022-09-03T18:01:04.465Z,100992.69
2022-09-03T18:03:37.362Z,100986.44
2022-09-03T18:06:10.583Z,100997.88
2022-09-03T18:08:46.145Z,101002.22
2022-09-03T18:11:16.171Z,101005.97
2022-09-03T18:13:46.864Z,101011.09
2022-09-03T18:16:17.647Z,101014.63
2022-09-03T18:18:47.871Z,101009.25
2022-09-03T18:21:39.495Z,101018.38
2022-09-03T18:24:36.202Z,101018.78
2022-09-03T18:27:27.993Z,101018.34
2022-09-03T18:30:16.967Z,101031.19
2022-09-03T18:33:02.098Z,101034.72
2022-09-03T18:35:50.086Z,101038.66
2022-09-03T18:38:44.470Z,101043.66
2022-09-03T18:41:40.077Z,101042.38
2022-09-03T18:44:27.401Z,101047.63
2022-09-03T18:50:27.577Z,101057.63
2022-09-03T18:53:15.858Z,101064.06
2022-09-03T18:56:13.485Z,101060.53
2022-09-03T18:59:09.734Z,101062.81
2022-09-03T19:01:57.325Z,101064.22
2022-09-03T19:04:48.835Z,101068.78
2022-09-03T19:07:41.468Z,101076.25
2022-09-03T19:10:29.540Z,101076.63
2022-09-03T19:13:31.034Z,101083.25
2022-09-03T19:16:18.738Z,101083.84
2022-09-03T19:19:23.434Z,101084.66
2022-09-03T19:22:13.444Z,101089.38
2022-09-03T19:24:58.470Z,101096.00
2022-09-03T19:27:55.548Z,101097.03
2022-09-03T19:30:50.294Z,101093.06
2022-09-03T19:33:42.779Z,101105.91
2022-09-03T19:36:33.498Z,101102.59
2022-09-03T19:39:29.717Z,101103.78
2022-09-03T19:42:20.233Z,101101.69
2022-09-03T19:45:14.491Z,101115.38
2022-09-03T19:48:07.119Z,101113.69
2022-09-03T19:50:56.327Z,101118.44
2022-09-03T19:53:42.283Z,101112.41
2022-09-03T19:56:28.185Z,101119.25
2022-09-03T19:59:14.624Z,101121.88
2022-09-03T20:02:00.781Z,101125.19
2022-09-03T20:04:50.119Z,101128.09
2022-09-03T20:07:36.324Z,101130.13
2022-09-03T20:10:23.558Z,101132.16
2022-09-03T20:12:57.385Z,101132.34
2022-09-03T20:15:29.365Z,101129.19
2022-09-03T20:18:02.620Z,101134.59
2022-09-03T20:20:36.455Z,101145.75
2022-09-03T20:23:09.602Z,101136.41
2022-09-03T20:25:46.745Z,101140.75
2022-09-03T20:28:25.005Z,101140.94
2022-09-03T20:30:57.652Z,101148.56
2022-09-03T20:33:35.698Z,101151.28
2022-09-03T20:36:12.334Z,101151.47
2022-09-03T20:38:52.055Z,101155.19
2022-09-03T20:41:24.786Z,101163.00
2022-09-03T20:44:15.189Z,101163.84
2022-09-03T20:46:54.100Z,101165.41
2022-09-03T20:49:31.218Z,101166.66
2022-09-03T20:52:07.449Z,101174.53
2022-09-03T20:54:39.020Z,101174.72
2022-09-03T20:57:26.089Z,101170.38
2022-09-03T21:00:04.854Z,101169.91
2022-09-03T21:02:53.421Z,101179.00
2022-09-03T21:05:26.142Z,101184.13
2022-09-03T21:08:04.722Z,101183.13
2022-09-03T21:10:35.592Z,101183.47
2022-09-03T21:13:09.177Z,101182.84
2022-09-03T21:15:43.486Z,101194.63
2022-09-03T21:18:17.199Z,101190.81
2022-09-03T21:20:47.725Z,101184.63
2022-09-03T21:23:22.405Z,101185.44
2022-09-03T21:25:55.772Z,101187.50
2022-09-03T21:28:25.635Z,101188.72
2022-09-03T21:30:57.613Z,101182.66
2022-09-03T21:33:29.356Z,101183.69
2022-09-03T21:36:05.256Z,101183.25
2022-09-03T21:38:37.001Z,101186.50
2022-09-03T21:41:13.799Z,101190.22
2022-09-03T21:43:48.192Z,101189.56
2022-09-03T21:46:17.224Z,101185.53
2022-09-03T21:48:48.687Z,101196.31
2022-09-03T21:51:21.821Z,101191.31
2022-09-03T21:53:55.990Z,101205.78
2022-09-03T21:56:40.068Z,101213.19
2022-09-03T21:59:15.985Z,101202.81
2022-09-03T22:01:55.519Z,101204.03
2022-09-03T22:04:23.278Z,101207.06
2022-09-03T22:06:56.434Z,101208.94
2022-09-03T22:09:29.809Z,101215.53
2022-09-03T22:12:02.306Z,101208.00
2022-09-03T22:14:34.887Z,101213.75
2022-09-03T22:17:08.785Z,101212.44
2022-09-03T22:19:37.556Z,101215.50
2022-09-03T22:22:09.927Z,101215.31
2022-09-03T22:24:44.080Z,101225.63
2022-09-03T22:27:19.669Z,101219.56
2022-09-03T22:29:51.038Z,101224.69
2022-09-03T22:32:33.686Z,101227.56
2022-09-03T22:35:14.701Z,101226.06
2022-09-03T22:37:53.069Z,101223.75
2022-09-03T22:40:25.964Z,101228.84
2022-09-03T22:43:06.138Z,101230.22
2022-09-03T22:45:54.355Z,101231.41
2022-09-03T22:48:32.058Z,101232.63
2022-09-03T22:51:00.907Z,101229.63
2022-09-03T22:53:40.159Z,101230.47
2022-09-03T22:56:11.437Z,101234.38
2022-09-03T22:58:44.193Z,101232.88
2022-09-03T23:01:17.889Z,101230.38
2022-09-03T23:03:50.722Z,101242.28
2022-09-03T23:06:25.304Z,101240.97
2022-09-03T23:08:58.095Z,101240.50
2022-09-03T23:11:29.407Z,101238.81
2022-09-03T23:14:01.592Z,101247.41
2022-09-03T23:16:34.124Z,101247.59
2022-09-03T23:21:51.769Z,101241.13
2022-09-03T23:24:20.355Z,101245.63
2022-09-03T23:26:52.588Z,101244.72
2022-09-03T23:29:26.069Z,101242.03
2022-09-03T23:31:55.135Z,101246.94
2022-09-03T23:34:22.827Z,101253.53
2022-09-03T23:37:29.278Z,101246.13
2022-09-03T23:40:02.705Z,101254.88
2022-09-03T23:42:44.550Z,101255.59
2022-09-03T23:45:17.599Z,101264.38
2022-09-03T23:47:54.208Z,101262.66
2022-09-03T23:50:33.293Z,101259.31
2022-09-03T23:53:09.599Z,101254.31
2022-09-03T23:55:38.685Z,101258.41
2022-09-03T23:58:12.259Z,101266.13
